Linwood, Wisconsin
Current Conditions -  °F | °C
As of 9:35 AM on Friday 24 Oct 2014 (Local Time) from KSTE Reporting Station
Moderate Fog Moderate Fog  
Wind Chill: 44°   Ceiling: 200
Heat Index: 44°   Visibility: 0.25mi
Dew Point: 44°   Wind: 3mph
Humidity: 100%   Direction: 220°SW
Pressure: 30.02"   Gusts: NA
Location:  44.5531°N, 89.5186°W
Report Text: KSTE 241435Z AUTO 22003KT 1/4SM FG OVC002 07/07 A3002 RMK AO2 T00660066
Loading
Personal Weather Stations






























Interactive Weather Map
Tropical Storm Tracking
New forecast layout! Learn more

10-Day Weather Forecast

Advertisements
Track Severe Weather on mobile